KASX/ASX METAR and TAF weather

Enter ICAO airport designator
Station Type Date Time Source
KASX METAR 2021/09/27 06:53 UTC NOAA

KASX 270653Z AUTO 00000KT 10SM CLR 08/08 A2976 RMK AO2 SLP076 T00830078


Station Type Date Time Source
KASX Decoded METAR 2021/09/27 06:53 UTC NOAA

ASHLAND KENNEDY MEMORIAL, WI, United States (KASX) 46-33N 090-55W 251M
Sep 27, 2021 - 02:53 AM EDT / 2021.09.27 0653 UTC
Wind: Calm:0
Visibility: 10 mile(s):0
Sky conditions: clear
Temperature: 46.9 F (8.3 C)
Dew Point: 46.0 F (7.8 C)
Relative Humidity: 96%
Pressure (altimeter): 29.76 in. Hg (1007 hPa)
ob: KASX 270653Z AUTO 00000KT 10SM CLR 08/08 A2976 RMK AO2 SLP076 T00830078
cycle: 7

Station Type Date Time Source
KASX TAF UTC NOAA

Error!

Example: see airport list